Time;durP1;ratioP1;P1;durP2;ratioP2;P2;SDS_P1;SDS_P2;PMS_P1;PMS_P2;Temp;Humidity;BMP_temperature;BMP_pressure;BME280_temperature;BME280_humidity;BME280_pressure;Samples;Min_cycle;Max_cycle;Signal;HPM_P1;HPM_P2
2022/03/30 00:00:12;;;;;;;;;;;12.50;78.80;;;;;;5061761;28;19924;-48
2022/03/30 00:02:38;;;;;;;;;;;12.50;78.90;;;;;;5059091;28;19928;-48
2022/03/30 00:05:06;;;;;;;;;;;12.50;79.60;;;;;;5061186;28;19937;-49
2022/03/30 00:07:32;;;;;;;;;;;12.60;78.80;;;;;;5056884;28;19989;-49
2022/03/30 00:09:59;;;;;;;;;;;12.50;79.40;;;;;;5062907;28;20236;-49
2022/03/30 00:12:26;;;;;;;;;;;12.50;79.10;;;;;;5063040;28;19951;-49
2022/03/30 00:14:54;;;;;;;;;;;12.50;78.60;;;;;;5057845;28;19979;-49
2022/03/30 00:17:21;;;;;;;;;;;12.50;78.90;;;;;;5059803;28;20038;-49
2022/03/30 00:19:48;;;;;;;;;;;12.60;78.80;;;;;;5068098;28;19928;-48
2022/03/30 00:22:14;;;;;;;;;;;12.50;79.40;;;;;;5060013;28;20382;-49
2022/03/30 00:24:43;;;;;;;;;;;12.60;79.40;;;;;;5050800;28;20005;-50
2022/03/30 00:27:10;;;;;;;;;;;12.60;78.90;;;;;;5053289;28;19947;-49
2022/03/30 00:29:37;;;;;;;;;;;12.60;79.00;;;;;;5066639;28;20355;-49
2022/03/30 00:32:06;;;;;;;;;;;12.60;79.30;;;;;;5057763;28;19925;-49
2022/03/30 00:34:32;;;;;;;;;;;12.60;78.80;;;;;;5052085;28;20408;-49
2022/03/30 00:36:59;;;;;;;;;;;12.70;77.90;;;;;;5058105;28;19925;-48
2022/03/30 00:39:26;;;;;;;;;;;12.70;77.80;;;;;;5064645;28;19990;-49
2022/03/30 00:41:52;;;;;;;;;;;12.70;78.20;;;;;;5073475;28;19981;-48
2022/03/30 00:44:19;;;;;;;;;;;12.70;78.50;;;;;;5068288;28;20343;-49
2022/03/30 00:46:46;;;;;;;;;;;12.70;77.50;;;;;;5061322;28;19941;-48
2022/03/30 00:49:14;;;;;;;;;;;12.70;78.40;;;;;;5062579;28;19945;-50
2022/03/30 00:51:41;;;;;;;;;;;12.80;77.20;;;;;;5054107;28;19925;-49
2022/03/30 00:54:08;;;;;;;;;;;12.80;77.40;;;;;;5053699;28;20472;-49
2022/03/30 00:56:36;;;;;;;;;;;12.70;77.50;;;;;;5062224;28;19986;-49
2022/03/30 00:59:05;;;;;;;;;;;12.60;79.60;;;;;;5060570;28;19929;-49
2022/03/30 01:01:32;;;;;;;;;;;12.50;80.00;;;;;;5053346;28;20402;-49
2022/03/30 01:03:58;;;;;;;;;;;12.50;78.80;;;;;;5060894;28;19985;-49
2022/03/30 01:06:27;;;;;;;;;;;12.40;79.00;;;;;;5059457;28;19947;-49
2022/03/30 01:08:53;;;;;;;;;;;12.30;80.10;;;;;;5063742;28;19974;-49
2022/03/30 01:11:20;;;;;;;;;;;12.40;79.90;;;;;;5068395;28;19987;-49
2022/03/30 01:13:47;;;;;;;;;;;12.30;80.20;;;;;;5054434;28;19986;-49
2022/03/30 01:16:14;;;;;;;;;;;12.40;79.00;;;;;;5062913;28;19928;-49
2022/03/30 01:18:41;;;;;;;;;;;12.70;78.40;;;;;;5062498;28;19987;-48
2022/03/30 01:21:09;;;;;;;;;;;12.90;77.80;;;;;;5073742;28;19924;-48
2022/03/30 01:23:36;;;;;;;;;;;12.90;77.70;;;;;;5070036;28;19925;-49
2022/03/30 01:26:05;;;;;;;;;;;12.70;78.00;;;;;;5061396;28;20031;-50
2022/03/30 01:28:33;;;;;;;;;;;12.70;78.70;;;;;;5063672;28;20263;-49
2022/03/30 01:33:44;;;;;;;;;;;12.80;79.70;;;;;;5061819;28;20406;-49
2022/03/30 01:36:12;;;;;;;;;;;12.50;80.20;;;;;;5061434;28;20425;-50
2022/03/30 01:38:39;;;;;;;;;;;12.50;80.20;;;;;;5061204;28;19959;-49
2022/03/30 01:41:07;;;;;;;;;;;12.50;79.90;;;;;;5073260;28;20018;-48
2022/03/30 01:43:34;;;;;;;;;;;12.50;80.00;;;;;;5073861;28;19981;-49
2022/03/30 01:46:00;;;;;;;;;;;12.50;80.00;;;;;;5056841;28;19971;-49
2022/03/30 01:48:27;;;;;;;;;;;12.50;80.70;;;;;;5060122;28;19929;-49
2022/03/30 01:50:54;;;;;;;;;;;12.50;80.90;;;;;;5062736;28;19928;-48
2022/03/30 01:53:22;;;;;;;;;;;12.50;81.10;;;;;;5063704;28;19932;-49
2022/03/30 01:55:49;;;;;;;;;;;12.40;81.40;;;;;;5065765;28;19997;-49
2022/03/30 01:58:17;;;;;;;;;;;12.30;81.60;;;;;;5061855;28;19995;-49
2022/03/30 02:00:45;;;;;;;;;;;12.10;82.30;;;;;;5052288;28;19936;-49
2022/03/30 02:03:12;;;;;;;;;;;12.10;82.90;;;;;;5062565;28;19947;-50
2022/03/30 02:05:38;;;;;;;;;;;11.90;85.00;;;;;;5049932;28;19978;-50
2022/03/30 02:08:05;;;;;;;;;;;11.80;84.20;;;;;;5060955;28;20335;-49
2022/03/30 02:10:34;;;;;;;;;;;11.90;84.00;;;;;;5068055;28;19978;-49
2022/03/30 02:13:00;;;;;;;;;;;11.90;84.70;;;;;;5067665;28;19925;-49
2022/03/30 02:15:29;;;;;;;;;;;12.00;83.30;;;;;;5052036;28;19929;-48
2022/03/30 02:17:56;;;;;;;;;;;11.90;83.30;;;;;;5054469;28;19975;-49
2022/03/30 02:20:22;;;;;;;;;;;11.80;83.40;;;;;;5064541;28;19924;-48
2022/03/30 02:22:49;;;;;;;;;;;11.70;84.70;;;;;;5072966;28;19982;-49
2022/03/30 02:25:16;;;;;;;;;;;11.60;84.90;;;;;;5066583;28;19994;-49
2022/03/30 02:27:44;;;;;;;;;;;11.60;86.10;;;;;;5060159;28;20344;-48
2022/03/30 02:30:11;;;;;;;;;;;11.60;86.60;;;;;;5063101;28;20312;-49
2022/03/30 02:32:40;;;;;;;;;;;11.50;86.70;;;;;;5072725;28;19986;-48
2022/03/30 02:35:07;;;;;;;;;;;11.50;87.80;;;;;;5060551;28;19970;-47
2022/03/30 02:37:34;;;;;;;;;;;11.50;87.70;;;;;;5058908;28;19925;-49
2022/03/30 02:40:01;;;;;;;;;;;11.40;88.50;;;;;;5064041;28;20376;-48
2022/03/30 02:42:27;;;;;;;;;;;11.60;87.50;;;;;;5050923;28;19929;-49
2022/03/30 02:44:56;;;;;;;;;;;11.60;87.30;;;;;;5061683;28;20078;-49
2022/03/30 02:48:17;;;;;;;;;;;11.60;87.10;;;;;;5047323;28;19925;-49
2022/03/30 02:50:09;;;;;;;;;;;11.60;86.50;;;;;;5057570;28;19971;-48
2022/03/30 02:52:36;;;;;;;;;;;11.60;86.00;;;;;;5051888;28;19929;-48
2022/03/30 02:55:03;;;;;;;;;;;11.70;85.40;;;;;;5061175;28;19925;-48
2022/03/30 02:57:29;;;;;;;;;;;11.90;83.80;;;;;;5061129;28;19929;-48
2022/03/30 02:59:58;;;;;;;;;;;11.90;83.40;;;;;;5063802;28;19952;-49
2022/03/30 03:02:24;;;;;;;;;;;11.90;84.90;;;;;;5053709;28;19982;-49
2022/03/30 03:04:51;;;;;;;;;;;11.80;85.70;;;;;;5051184;28;19990;-49
2022/03/30 03:07:18;;;;;;;;;;;12.00;86.40;;;;;;5055837;28;20364;-49
2022/03/30 03:09:45;;;;;;;;;;;12.00;86.60;;;;;;5062457;28;19975;-48
2022/03/30 03:12:12;;;;;;;;;;;11.80;88.70;;;;;;5061155;28;20272;-48
2022/03/30 03:14:38;;;;;;;;;;;11.70;88.80;;;;;;5053189;28;19925;-49
2022/03/30 03:17:07;;;;;;;;;;;11.50;87.80;;;;;;5050785;28;19967;-48
2022/03/30 03:19:33;;;;;;;;;;;11.50;89.40;;;;;;5060160;28;19925;-48
2022/03/30 03:22:00;;;;;;;;;;;11.50;89.70;;;;;;5050905;28;19978;-48
2022/03/30 03:24:27;;;;;;;;;;;11.40;89.20;;;;;;5051746;28;20330;-48
2022/03/30 03:26:54;;;;;;;;;;;11.40;89.40;;;;;;5057425;28;19978;-49
2022/03/30 03:29:21;;;;;;;;;;;11.40;90.30;;;;;;5056034;28;19925;-49
2022/03/30 03:31:48;;;;;;;;;;;11.50;90.40;;;;;;5051221;28;19925;-50
2022/03/30 03:34:16;;;;;;;;;;;11.40;89.80;;;;;;5057536;28;19963;-49
2022/03/30 03:36:43;;;;;;;;;;;11.40;89.90;;;;;;5056617;28;19951;-49
2022/03/30 03:39:10;;;;;;;;;;;11.60;90.10;;;;;;5059423;28;19925;-49
2022/03/30 03:41:36;;;;;;;;;;;11.60;89.00;;;;;;5066927;28;19986;-48
2022/03/30 03:44:04;;;;;;;;;;;11.50;90.00;;;;;;5052076;28;20370;-49
2022/03/30 03:46:30;;;;;;;;;;;11.60;90.00;;;;;;5050456;28;19924;-48
2022/03/30 03:48:57;;;;;;;;;;;11.90;88.90;;;;;;5060840;28;19929;-50
2022/03/30 03:51:26;;;;;;;;;;;11.80;89.10;;;;;;5070997;28;19928;-48
2022/03/30 03:53:53;;;;;;;;;;;11.80;89.10;;;;;;5063862;28;19925;-48
2022/03/30 03:56:19;;;;;;;;;;;11.90;89.30;;;;;;5051682;28;19928;-49
2022/03/30 03:58:48;;;;;;;;;;;11.80;89.60;;;;;;5054934;28;19987;-49
2022/03/30 04:01:16;;;;;;;;;;;11.80;89.70;;;;;;5071012;28;19928;-49
2022/03/30 04:03:43;;;;;;;;;;;11.60;90.10;;;;;;5053366;28;19924;-49
2022/03/30 04:06:12;;;;;;;;;;;11.40;90.30;;;;;;5048340;28;19929;-48
2022/03/30 04:08:40;;;;;;;;;;;11.50;90.70;;;;;;5041564;28;19974;-50
2022/03/30 04:11:09;;;;;;;;;;;11.50;90.80;;;;;;5032626;28;19998;-50
2022/03/30 04:13:37;;;;;;;;;;;11.40;91.00;;;;;;5030805;28;19925;-50
2022/03/30 04:16:04;;;;;;;;;;;11.50;91.30;;;;;;5030699;28;20283;-50
2022/03/30 04:18:31;;;;;;;;;;;11.70;91.30;;;;;;5040100;28;20307;-51
2022/03/30 04:20:58;;;;;;;;;;;11.80;91.10;;;;;;5034197;28;19932;-49
2022/03/30 04:23:24;;;;;;;;;;;11.80;91.20;;;;;;5031537;28;19991;-49
2022/03/30 04:25:52;;;;;;;;;;;11.70;91.40;;;;;;5032415;28;19925;-51
2022/03/30 04:28:19;;;;;;;;;;;11.50;91.70;;;;;;5040571;28;20406;-50
2022/03/30 04:30:46;;;;;;;;;;;11.50;91.90;;;;;;5034693;28;20549;-50
2022/03/30 04:33:13;;;;;;;;;;;11.60;91.80;;;;;;5042892;28;20336;-49
2022/03/30 04:35:39;;;;;;;;;;;11.50;92.50;;;;;;5049399;28;20345;-50
2022/03/30 04:38:06;;;;;;;;;;;11.30;92.50;;;;;;5044428;28;19978;-50
2022/03/30 04:40:33;;;;;;;;;;;11.30;92.60;;;;;;5037253;28;20350;-51
2022/03/30 04:43:02;;;;;;;;;;;11.30;92.70;;;;;;5033895;28;19925;-50
2022/03/30 04:45:29;;;;;;;;;;;11.40;92.60;;;;;;5033512;28;19925;-50
2022/03/30 04:47:55;;;;;;;;;;;11.30;92.90;;;;;;5044397;28;20008;-57
2022/03/30 04:50:22;;;;;;;;;;;11.20;93.50;;;;;;5044081;28;19931;-50
2022/03/30 04:52:49;;;;;;;;;;;11.20;93.60;;;;;;5037044;28;19925;-49
2022/03/30 04:55:16;;;;;;;;;;;11.20;93.80;;;;;;5042966;28;20012;-50
2022/03/30 04:57:43;;;;;;;;;;;11.00;94.80;;;;;;5031384;28;20409;-50
2022/03/30 05:00:13;;;;;;;;;;;11.10;94.40;;;;;;5040062;28;20440;-50
2022/03/30 05:02:40;;;;;;;;;;;11.30;93.90;;;;;;5044318;28;19929;-49
2022/03/30 05:05:08;;;;;;;;;;;11.30;94.00;;;;;;5038855;28;20294;-49
2022/03/30 05:07:34;;;;;;;;;;;11.10;94.80;;;;;;5045259;28;19932;-49
2022/03/30 05:10:01;;;;;;;;;;;11.10;94.80;;;;;;5104388;22;19924;-58
2022/03/30 05:12:28;;;;;;;;;;;11.00;94.70;;;;;;5089422;28;19961;-58
2022/03/30 05:14:55;;;;;;;;;;;11.00;94.70;;;;;;5089008;28;19977;-58
2022/03/30 05:17:23;;;;;;;;;;;11.00;94.90;;;;;;5089334;28;19943;-57
2022/03/30 05:19:50;;;;;;;;;;;11.00;94.70;;;;;;5082380;28;19924;-57
2022/03/30 05:22:18;;;;;;;;;;;11.00;94.60;;;;;;5082118;28;19977;-57
2022/03/30 05:24:45;;;;;;;;;;;10.90;94.60;;;;;;5084766;28;20278;-57
2022/03/30 05:27:12;;;;;;;;;;;10.80;95.00;;;;;;5081772;28;20296;-57
2022/03/30 05:29:40;;;;;;;;;;;10.80;95.30;;;;;;5093148;28;19935;-57
2022/03/30 05:32:07;;;;;;;;;;;10.80;95.10;;;;;;5088992;28;20019;-57
2022/03/30 05:34:36;;;;;;;;;;;10.80;95.70;;;;;;5092008;28;20000;-57
2022/03/30 05:37:03;;;;;;;;;;;10.90;95.90;;;;;;5092114;28;19924;-57
2022/03/30 05:39:31;;;;;;;;;;;10.90;96.00;;;;;;5092724;28;20023;-57
2022/03/30 05:41:57;;;;;;;;;;;10.90;96.00;;;;;;5092298;28;20381;-57
2022/03/30 05:44:24;;;;;;;;;;;11.00;96.00;;;;;;5088515;28;20290;-57
2022/03/30 05:46:51;;;;;;;;;;;11.00;96.30;;;;;;5092488;28;20381;-57
2022/03/30 05:49:17;;;;;;;;;;;11.10;96.60;;;;;;5092670;28;19924;-57
2022/03/30 05:51:46;;;;;;;;;;;11.10;97.00;;;;;;5081897;28;19924;-57
2022/03/30 05:54:12;;;;;;;;;;;11.10;97.40;;;;;;5091110;28;19928;-57
2022/03/30 05:59:24;;;;;;;;;;;11.20;98.50;;;;;;5093115;28;20288;-57
2022/03/30 06:01:50;;;;;;;;;;;11.30;98.60;;;;;;5091249;28;20018;-59
2022/03/30 06:04:17;;;;;;;;;;;11.30;99.10;;;;;;5080019;28;20347;-59
2022/03/30 06:06:45;;;;;;;;;;;11.30;99.20;;;;;;5094057;28;19928;-59
2022/03/30 06:09:12;;;;;;;;;;;11.30;99.20;;;;;;5093792;28;20350;-59
2022/03/30 06:11:39;;;;;;;;;;;11.30;98.80;;;;;;5089547;28;20170;-59
2022/03/30 06:14:06;;;;;;;;;;;11.40;98.70;;;;;;5092954;28;19928;-59
2022/03/30 06:16:32;;;;;;;;;;;11.50;98.40;;;;;;5093752;28;19924;-59
2022/03/30 06:18:59;;;;;;;;;;;11.60;98.70;;;;;;5092575;28;19975;-59
2022/03/30 06:21:26;;;;;;;;;;;11.60;98.60;;;;;;5093034;28;19924;-60
2022/03/30 06:23:54;;;;;;;;;;;11.60;98.00;;;;;;5093235;28;19925;-59
2022/03/30 06:26:21;;;;;;;;;;;11.80;98.00;;;;;;5093368;28;20023;-59
2022/03/30 06:28:49;;;;;;;;;;;12.00;97.10;;;;;;5093383;28;20001;-59
2022/03/30 06:31:17;;;;;;;;;;;11.90;97.20;;;;;;5092760;28;20464;-59
2022/03/30 06:33:44;;;;;;;;;;;11.90;97.00;;;;;;5093016;28;19924;-59
2022/03/30 06:36:10;;;;;;;;;;;11.80;97.60;;;;;;5093433;28;19924;-58
2022/03/30 06:38:37;;;;;;;;;;;11.90;97.40;;;;;;5092114;28;19971;-59
2022/03/30 06:41:07;;;;;;;;;;;12.00;97.30;;;;;;5091577;28;19924;-59
2022/03/30 06:43:34;;;;;;;;;;;12.10;97.20;;;;;;5092649;28;20015;-59
2022/03/30 06:46:00;;;;;;;;;;;12.30;97.00;;;;;;5091616;28;19969;-59
2022/03/30 06:48:30;;;;;;;;;;;12.40;96.60;;;;;;5081891;28;19924;-59
2022/03/30 06:50:58;;;;;;;;;;;12.50;96.80;;;;;;5086528;28;20000;-58
2022/03/30 06:53:24;;;;;;;;;;;12.60;97.60;;;;;;5085965;28;20043;-58
2022/03/30 06:55:52;;;;;;;;;;;12.70;96.60;;;;;;5079107;28;19925;-58
2022/03/30 06:58:22;;;;;;;;;;;12.80;95.40;;;;;;5072205;28;19924;-58
2022/03/30 07:00:48;;;;;;;;;;;13.00;95.20;;;;;;5075021;28;20012;-58
2022/03/30 07:03:15;;;;;;;;;;;13.30;94.60;;;;;;5072056;28;19924;-58
2022/03/30 07:05:42;;;;;;;;;;;13.40;93.70;;;;;;5074583;28;19951;-58
2022/03/30 07:10:53;;;;;;;;;;;13.50;93.40;;;;;;5088138;28;19927;-58
2022/03/30 07:13:22;;;;;;;;;;;13.50;93.20;;;;;;5074886;28;19932;-58
2022/03/30 07:15:48;;;;;;;;;;;13.40;92.70;;;;;;5071796;28;20019;-58
2022/03/30 07:18:15;;;;;;;;;;;13.10;92.50;;;;;;5078097;28;19990;-58
2022/03/30 07:20:42;;;;;;;;;;;13.80;92.10;;;;;;5076227;28;20393;-58
2022/03/30 07:23:10;;;;;;;;;;;13.90;91.40;;;;;;5078316;28;19932;-58
2022/03/30 07:25:37;;;;;;;;;;;14.00;91.40;;;;;;5073381;28;19970;-58
2022/03/30 07:28:05;;;;;;;;;;;14.10;91.30;;;;;;5072183;28;19928;-58
2022/03/30 07:30:33;;;;;;;;;;;13.80;91.70;;;;;;5072626;28;19982;-58
2022/03/30 07:33:00;;;;;;;;;;;14.00;91.70;;;;;;5087286;28;19973;-58
2022/03/30 07:35:28;;;;;;;;;;;14.20;91.50;;;;;;5084527;28;19977;-58
2022/03/30 07:37:55;;;;;;;;;;;14.20;91.50;;;;;;5073641;28;19931;-58
2022/03/30 07:40:24;;;;;;;;;;;14.30;91.40;;;;;;5071842;28;20444;-58
2022/03/30 07:42:51;;;;;;;;;;;14.60;91.10;;;;;;5072145;28;19985;-58
2022/03/30 07:45:19;;;;;;;;;;;14.50;91.20;;;;;;5073563;28;19952;-58
2022/03/30 07:47:47;;;;;;;;;;;14.60;90.90;;;;;;5088336;28;19977;-58
2022/03/30 07:50:14;;;;;;;;;;;14.80;91.00;;;;;;5091556;28;19924;-58
2022/03/30 07:52:42;;;;;;;;;;;14.80;91.10;;;;;;5091618;28;20442;-58
2022/03/30 07:55:09;;;;;;;;;;;14.60;91.30;;;;;;5091701;28;19924;-58
2022/03/30 07:57:39;;;;;;;;;;;14.80;91.30;;;;;;5091449;28;19924;-58
2022/03/30 08:00:07;;;;;;;;;;;14.90;91.40;;;;;;5092144;28;19924;-58
2022/03/30 08:02:35;;;;;;;;;;;15.00;91.70;;;;;;5091772;28;19924;-58
2022/03/30 08:05:03;;;;;;;;;;;15.00;91.80;;;;;;5091788;28;19931;-58
2022/03/30 08:07:30;;;;;;;;;;;15.00;92.10;;;;;;5090826;28;19934;-58
2022/03/30 08:09:57;;;;;;;;;;;15.20;92.30;;;;;;5091617;28;19924;-58
2022/03/30 08:12:25;;;;;;;;;;;15.10;92.70;;;;;;5091562;28;19924;-58
2022/03/30 08:14:52;;;;;;;;;;;14.80;93.00;;;;;;5091730;28;20171;-58
2022/03/30 08:17:24;;;;;;;;;;;15.10;93.10;;;;;;5091233;28;19927;-58
2022/03/30 08:19:50;;;;;;;;;;;15.30;92.70;;;;;;5091615;28;19935;-58
2022/03/30 08:22:28;;;;;;;;;;;15.40;92.90;;;;;;5091542;28;19924;-58
2022/03/30 08:24:55;;;;;;;;;;;15.50;92.70;;;;;;5091451;28;19931;-58
2022/03/30 08:27:23;;;;;;;;;;;15.50;92.60;;;;;;5091183;28;19936;-58
2022/03/30 08:29:51;;;;;;;;;;;15.30;93.30;;;;;;5091521;28;19928;-58
2022/03/30 08:32:18;;;;;;;;;;;15.40;93.10;;;;;;5091353;28;19934;-58
2022/03/30 08:34:46;;;;;;;;;;;15.30;92.90;;;;;;5091294;28;19924;-58
2022/03/30 08:37:13;;;;;;;;;;;15.10;93.50;;;;;;5091207;28;19946;-58
2022/03/30 08:39:41;;;;;;;;;;;15.50;93.00;;;;;;5091515;28;19928;-58
2022/03/30 08:42:09;;;;;;;;;;;15.40;93.00;;;;;;5090780;28;19924;-58
2022/03/30 08:44:36;;;;;;;;;;;15.00;93.40;;;;;;5091142;28;19924;-58
2022/03/30 08:47:05;;;;;;;;;;;15.50;93.30;;;;;;5090893;28;19928;-58
2022/03/30 08:49:34;;;;;;;;;;;15.90;92.60;;;;;;5090474;28;20351;-58
2022/03/30 08:52:03;;;;;;;;;;;16.00;92.40;;;;;;5077872;28;19924;-58
2022/03/30 08:54:30;;;;;;;;;;;16.10;92.30;;;;;;5084434;28;19985;-58
2022/03/30 08:56:58;;;;;;;;;;;15.90;92.40;;;;;;5081150;28;20314;-58
2022/03/30 08:59:25;;;;;;;;;;;16.30;91.50;;;;;;5090029;28;19977;-58
2022/03/30 09:01:54;;;;;;;;;;;16.70;91.20;;;;;;5072372;28;19993;-58
2022/03/30 09:04:21;;;;;;;;;;;16.50;90.70;;;;;;5081042;28;19928;-58
2022/03/30 09:06:49;;;;;;;;;;;16.40;90.80;;;;;;5095127;28;19924;-58
2022/03/30 09:09:18;;;;;;;;;;;16.60;90.80;;;;;;5094569;28;19982;-58
2022/03/30 09:11:48;;;;;;;;;;;16.50;90.10;;;;;;5094127;28;19928;-58
2022/03/30 09:14:18;;;;;;;;;;;16.90;90.10;;;;;;5091357;28;19972;-58
2022/03/30 09:16:46;;;;;;;;;;;17.10;87.30;;;;;;5094530;28;19931;-58
2022/03/30 09:19:13;;;;;;;;;;;17.20;87.90;;;;;;5094226;28;19923;-58
2022/03/30 09:21:44;;;;;;;;;;;17.60;84.90;;;;;;5094254;28;19924;-58
2022/03/30 09:24:11;;;;;;;;;;;17.70;85.50;;;;;;5094549;28;19928;-58
2022/03/30 09:26:38;;;;;;;;;;;17.80;86.20;;;;;;5094568;28;19924;-58
2022/03/30 09:29:05;;;;;;;;;;;18.00;86.60;;;;;;5094254;28;19993;-58
2022/03/30 09:31:35;;;;;;;;;;;17.80;84.70;;;;;;5094501;28;19932;-58
2022/03/30 09:34:02;;;;;;;;;;;17.70;83.20;;;;;;5094206;28;20390;-58
2022/03/30 09:36:29;;;;;;;;;;;17.70;83.80;;;;;;5094084;28;19992;-59
2022/03/30 09:38:56;;;;;;;;;;;17.70;87.00;;;;;;5092180;28;19924;-59
2022/03/30 09:41:23;;;;;;;;;;;17.50;84.60;;;;;;5093703;28;19943;-59
2022/03/30 09:43:50;;;;;;;;;;;17.60;86.60;;;;;;5094083;28;19924;-59
2022/03/30 09:46:17;;;;;;;;;;;17.50;89.70;;;;;;5092847;28;20270;-59
2022/03/30 09:48:49;;;;;;;;;;;17.40;88.60;;;;;;5094088;28;19989;-59
2022/03/30 09:51:16;;;;;;;;;;;17.50;87.20;;;;;;5093278;28;19931;-60
2022/03/30 09:53:43;;;;;;;;;;;17.50;85.60;;;;;;5092981;28;19924;-60
2022/03/30 09:56:14;;;;;;;;;;;17.30;88.70;;;;;;5093065;28;19928;-59
2022/03/30 09:58:41;;;;;;;;;;;17.40;87.90;;;;;;5093213;28;19950;-58
2022/03/30 10:01:09;;;;;;;;;;;17.10;86.60;;;;;;5092962;28;19985;-58
2022/03/30 10:03:48;;;;;;;;;;;17.00;87.20;;;;;;5073387;28;20317;-59
2022/03/30 10:06:16;;;;;;;;;;;17.30;91.00;;;;;;5090981;28;20027;-58
2022/03/30 10:08:44;;;;;;;;;;;17.50;90.30;;;;;;5093137;28;19924;-58
2022/03/30 10:11:12;;;;;;;;;;;17.60;89.70;;;;;;5092876;28;19935;-58
2022/03/30 10:13:39;;;;;;;;;;;17.30;89.00;;;;;;5092875;28;19924;-59
2022/03/30 10:16:06;;;;;;;;;;;17.30;88.40;;;;;;5092413;28;19993;-58
2022/03/30 10:18:34;;;;;;;;;;;17.00;91.00;;;;;;5092874;28;19924;-58
2022/03/30 10:21:07;;;;;;;;;;;16.90;91.00;;;;;;5083916;28;19971;-58
2022/03/30 10:23:41;;;;;;;;;;;16.80;91.10;;;;;;5073007;28;19931;-57
2022/03/30 10:26:10;;;;;;;;;;;16.20;92.10;;;;;;5073147;28;19928;-57
2022/03/30 10:28:46;;;;;;;;;;;16.20;93.00;;;;;;5085702;28;19943;-55
2022/03/30 10:31:13;;;;;;;;;;;16.20;93.90;;;;;;5092187;28;19999;-57
2022/03/30 10:33:42;;;;;;;;;;;15.90;94.10;;;;;;5092755;28;19977;-57
2022/03/30 10:36:30;;;;;;;;;;;15.60;94.50;;;;;;5092370;28;19931;-57
2022/03/30 10:39:07;;;;;;;;;;;15.50;94.90;;;;;;5076464;28;19957;-57
2022/03/30 10:41:47;;;;;;;;;;;15.80;95.00;;;;;;5086817;28;19977;-57
2022/03/30 10:44:28;;;;;;;;;;;16.10;94.70;;;;;;5081004;28;19932;-58
2022/03/30 10:47:06;;;;;;;;;;;16.00;95.10;;;;;;5081215;28;19928;-58
2022/03/30 10:49:43;;;;;;;;;;;15.90;95.70;;;;;;5090750;28;20320;-58
2022/03/30 10:52:28;;;;;;;;;;;15.70;95.90;;;;;;5087720;28;20004;-57
2022/03/30 10:55:16;;;;;;;;;;;15.60;96.20;;;;;;5076774;28;19932;-57
2022/03/30 10:57:49;;;;;;;;;;;15.60;96.50;;;;;;5064574;28;19928;-57
2022/03/30 11:00:20;;;;;;;;;;;14.90;96.90;;;;;;5072399;28;20027;-57
2022/03/30 11:02:47;;;;;;;;;;;14.70;98.00;;;;;;5082646;28;19943;-57
2022/03/30 11:05:15;;;;;;;;;;;14.60;98.20;;;;;;5092022;28;19924;-58
2022/03/30 11:07:44;;;;;;;;;;;14.80;98.40;;;;;;5091942;28;19981;-58
2022/03/30 11:10:14;;;;;;;;;;;14.50;99.90;;;;;;5114240;22;20030;-48
2022/03/30 11:12:57;;;;;;;;;;;14.10;99.90;;;;;;5091455;28;19970;-48
2022/03/30 11:15:24;;;;;;;;;;;13.90;99.90;;;;;;5092134;28;20010;-48
2022/03/30 11:17:50;;;;;;;;;;;13.90;99.90;;;;;;5092064;28;20352;-49
2022/03/30 11:20:19;;;;;;;;;;;13.70;99.90;;;;;;5087548;28;20365;-48
2022/03/30 11:22:48;;;;;;;;;;;13.60;99.90;;;;;;5071850;28;19925;-48
2022/03/30 11:25:18;;;;;;;;;;;14.00;99.90;;;;;;5071004;28;20428;-48
2022/03/30 11:27:45;;;;;;;;;;;13.90;99.90;;;;;;5071990;28;20361;-47
2022/03/30 11:30:13;;;;;;;;;;;14.30;99.90;;;;;;5072140;28;19975;-48
2022/03/30 11:32:55;;;;;;;;;;;14.90;99.90;;;;;;5071701;28;20470;-48
2022/03/30 11:35:24;;;;;;;;;;;15.30;99.90;;;;;;5071402;28;20421;-49
2022/03/30 11:38:02;;;;;;;;;;;15.50;99.90;;;;;;5078172;28;20288;-49
2022/03/30 11:40:28;;;;;;;;;;;15.70;99.90;;;;;;5092190;28;19997;-49
2022/03/30 11:42:56;;;;;;;;;;;16.10;99.90;;;;;;5077211;28;19986;-48
2022/03/30 11:45:23;;;;;;;;;;;16.20;99.90;;;;;;5071446;28;19928;-47
2022/03/30 11:47:54;;;;;;;;;;;15.60;99.90;;;;;;5066815;28;19990;-49
2022/03/30 11:50:28;;;;;;;;;;;15.30;99.90;;;;;;5068652;28;19925;-48
2022/03/30 11:52:57;;;;;;;;;;;15.30;99.90;;;;;;5071513;28;19986;-49
2022/03/30 11:55:24;;;;;;;;;;;15.20;99.90;;;;;;5071527;28;19977;-48
2022/03/30 11:57:52;;;;;;;;;;;15.30;99.90;;;;;;5071007;28;19929;-47
2022/03/30 12:00:21;;;;;;;;;;;15.20;99.90;;;;;;5071350;28;19977;-48
2022/03/30 12:02:48;;;;;;;;;;;15.10;99.90;;;;;;5070789;28;19924;-48
2022/03/30 12:05:15;;;;;;;;;;;15.30;99.90;;;;;;5071220;28;19977;-48
2022/03/30 12:07:42;;;;;;;;;;;15.20;99.90;;;;;;5062990;28;20027;-49
2022/03/30 12:10:14;;;;;;;;;;;15.10;99.90;;;;;;5051274;28;19928;-49
2022/03/30 12:12:41;;;;;;;;;;;15.10;99.90;;;;;;5061007;28;20349;-49
2022/03/30 12:15:09;;;;;;;;;;;15.10;99.90;;;;;;5071087;28;19930;-48
2022/03/30 12:17:37;;;;;;;;;;;14.60;99.90;;;;;;5070544;28;20391;-49
2022/03/30 12:20:05;;;;;;;;;;;14.80;99.90;;;;;;5071128;28;20402;-50
2022/03/30 12:22:32;;;;;;;;;;;14.80;99.90;;;;;;5071141;28;19935;-49
2022/03/30 12:24:59;;;;;;;;;;;14.90;99.90;;;;;;5071351;28;19978;-49
2022/03/30 12:27:27;;;;;;;;;;;14.90;99.90;;;;;;5070664;28;19932;-48
2022/03/30 12:29:55;;;;;;;;;;;15.00;99.90;;;;;;5070744;28;19950;-49
2022/03/30 12:32:24;;;;;;;;;;;14.90;99.90;;;;;;5071124;28;19932;-49
2022/03/30 12:34:51;;;;;;;;;;;14.50;99.90;;;;;;5069732;28;19970;-49
2022/03/30 12:37:22;;;;;;;;;;;14.50;99.90;;;;;;5073579;28;19928;-47
2022/03/30 12:39:49;;;;;;;;;;;14.80;99.90;;;;;;5073820;28;20382;-49
2022/03/30 12:42:17;;;;;;;;;;;15.00;99.90;;;;;;5073490;28;19925;-49
2022/03/30 12:44:50;;;;;;;;;;;15.00;99.90;;;;;;5068998;28;19924;-49
2022/03/30 12:47:18;;;;;;;;;;;15.00;99.90;;;;;;5073314;28;20447;-50
2022/03/30 12:49:44;;;;;;;;;;;15.00;99.90;;;;;;5073370;28;19970;-50
2022/03/30 12:52:12;;;;;;;;;;;15.10;99.90;;;;;;5082374;28;20002;-49
2022/03/30 12:54:39;;;;;;;;;;;15.10;99.90;;;;;;5073926;28;20348;-49
2022/03/30 12:57:06;;;;;;;;;;;15.10;99.90;;;;;;5074420;28;19932;-49
2022/03/30 12:59:33;;;;;;;;;;;15.30;99.90;;;;;;5070583;28;20397;-50
2022/03/30 13:02:16;;;;;;;;;;;15.20;99.90;;;;;;5074694;28;19986;-49
2022/03/30 13:04:48;;;;;;;;;;;15.30;99.90;;;;;;5074440;28;19928;-48
2022/03/30 13:07:17;;;;;;;;;;;15.20;99.90;;;;;;5064242;28;19986;-48
2022/03/30 13:09:58;;;;;;;;;;;15.20;99.90;;;;;;5054426;28;20055;-49
2022/03/30 13:12:30;;;;;;;;;;;14.80;99.90;;;;;;5068356;28;19931;-49
2022/03/30 13:15:04;;;;;;;;;;;14.60;99.90;;;;;;5065366;28;19941;-50
2022/03/30 13:17:32;;;;;;;;;;;14.70;99.90;;;;;;5068769;28;19929;-49
2022/03/30 13:19:59;;;;;;;;;;;15.00;99.90;;;;;;5073874;28;19997;-49
2022/03/30 13:22:26;;;;;;;;;;;15.10;99.90;;;;;;5072821;28;20474;-49
2022/03/30 13:24:54;;;;;;;;;;;15.70;99.90;;;;;;5072435;28;19932;-47
2022/03/30 13:27:21;;;;;;;;;;;15.60;99.90;;;;;;5074473;28;19977;-47
2022/03/30 13:29:48;;;;;;;;;;;14.70;99.90;;;;;;5074183;28;20324;-48
2022/03/30 13:32:14;;;;;;;;;;;14.60;99.90;;;;;;5073721;28;19978;-47
2022/03/30 13:34:43;;;;;;;;;;;14.30;99.90;;;;;;5074021;28;19928;-49
2022/03/30 13:37:09;;;;;;;;;;;14.40;99.90;;;;;;5074120;28;19966;-49
2022/03/30 13:39:36;;;;;;;;;;;14.60;99.90;;;;;;5073867;28;19978;-49
2022/03/30 13:42:04;;;;;;;;;;;14.70;99.90;;;;;;5073409;28;20372;-48
2022/03/30 13:44:31;;;;;;;;;;;14.70;99.90;;;;;;5073487;28;19959;-49
2022/03/30 13:46:58;;;;;;;;;;;14.50;99.90;;;;;;5071207;28;19939;-49
2022/03/30 13:52:07;;;;;;;;;;;13.70;99.90;;;;;;5072081;28;19960;-47
2022/03/30 13:54:34;;;;;;;;;;;13.20;99.90;;;;;;5072080;28;19981;-49
2022/03/30 13:57:01;;;;;;;;;;;13.20;99.90;;;;;;5072400;28;20385;-49
2022/03/30 13:59:27;;;;;;;;;;;13.20;99.90;;;;;;5072158;28;20088;-49
2022/03/30 14:01:54;;;;;;;;;;;13.30;99.90;;;;;;5072065;28;20016;-48
2022/03/30 14:04:21;;;;;;;;;;;13.40;99.90;;;;;;5072206;28;19928;-49
2022/03/30 14:06:48;;;;;;;;;;;13.40;99.90;;;;;;5072137;28;19970;-48
2022/03/30 14:09:16;;;;;;;;;;;13.20;99.90;;;;;;5071904;28;19954;-49
2022/03/30 14:11:43;;;;;;;;;;;13.10;99.90;;;;;;5071900;28;19924;-49
2022/03/30 14:14:10;;;;;;;;;;;13.10;99.90;;;;;;5067720;28;19989;-48
2022/03/30 14:16:36;;;;;;;;;;;13.20;99.90;;;;;;5072011;28;20364;-49
2022/03/30 14:19:03;;;;;;;;;;;13.40;99.90;;;;;;5071946;28;20571;-48
2022/03/30 14:21:30;;;;;;;;;;;13.40;99.90;;;;;;5071847;28;20358;-48
2022/03/30 14:23:57;;;;;;;;;;;13.20;99.90;;;;;;5071495;28;20397;-49
2022/03/30 14:26:25;;;;;;;;;;;13.20;99.90;;;;;;5071592;28;19974;-48
2022/03/30 14:28:52;;;;;;;;;;;13.30;99.90;;;;;;5073248;28;19928;-49
2022/03/30 14:31:21;;;;;;;;;;;13.30;99.90;;;;;;5072805;28;19930;-48